sensor_id;sensor_type;location;lat;lon;timestamp;P1;durP1;ratioP1;P2;durP2;ratioP2
64619;SDS011;51029;51.058;13.826;2022-09-27T00:01:05;2.83;;;2.40;;
64619;SDS011;51029;51.058;13.826;2022-09-27T00:03:32;4.83;;;2.07;;
64619;SDS011;51029;51.058;13.826;2022-09-27T00:06:01;4.93;;;2.13;;
64619;SDS011;51029;51.058;13.826;2022-09-27T00:08:29;4.27;;;2.30;;
64619;SDS011;51029;51.058;13.826;2022-09-27T00:10:59;4.17;;;2.37;;
64619;SDS011;51029;51.058;13.826;2022-09-27T00:13:25;3.73;;;2.47;;
64619;SDS011;51029;51.058;13.826;2022-09-27T00:15:55;4.23;;;2.23;;
64619;SDS011;51029;51.058;13.826;2022-09-27T00:18:21;4.93;;;2.40;;
64619;SDS011;51029;51.058;13.826;2022-09-27T00:20:46;3.40;;;1.90;;
64619;SDS011;51029;51.058;13.826;2022-09-27T00:23:12;4.27;;;2.30;;
64619;SDS011;51029;51.058;13.826;2022-09-27T00:25:38;3.33;;;2.20;;
64619;SDS011;51029;51.058;13.826;2022-09-27T00:28:05;4.83;;;2.60;;
64619;SDS011;51029;51.058;13.826;2022-09-27T00:30:30;2.83;;;2.10;;
64619;SDS011;51029;51.058;13.826;2022-09-27T00:32:56;4.17;;;1.90;;
64619;SDS011;51029;51.058;13.826;2022-09-27T00:35:23;2.97;;;2.00;;
64619;SDS011;51029;51.058;13.826;2022-09-27T00:37:49;2.63;;;2.20;;
64619;SDS011;51029;51.058;13.826;2022-09-27T00:40:15;2.53;;;1.87;;
64619;SDS011;51029;51.058;13.826;2022-09-27T00:42:41;3.70;;;2.10;;
64619;SDS011;51029;51.058;13.826;2022-09-27T00:45:13;4.37;;;2.23;;
64619;SDS011;51029;51.058;13.826;2022-09-27T00:47:42;3.03;;;2.00;;
64619;SDS011;51029;51.058;13.826;2022-09-27T00:52:47;2.57;;;2.07;;
64619;SDS011;51029;51.058;13.826;2022-09-27T00:55:19;4.00;;;2.00;;
64619;SDS011;51029;51.058;13.826;2022-09-27T00:57:48;2.87;;;2.10;;
64619;SDS011;51029;51.058;13.826;2022-09-27T01:00:15;4.50;;;2.10;;
64619;SDS011;51029;51.058;13.826;2022-09-27T01:02:42;3.60;;;2.30;;
64619;SDS011;51029;51.058;13.826;2022-09-27T01:05:09;4.17;;;2.30;;
64619;SDS011;51029;51.058;13.826;2022-09-27T01:07:36;2.50;;;2.30;;
64619;SDS011;51029;51.058;13.826;2022-09-27T01:10:02;3.20;;;2.53;;
64619;SDS011;51029;51.058;13.826;2022-09-27T01:14:59;3.00;;;2.27;;
64619;SDS011;51029;51.058;13.826;2022-09-27T01:20:19;2.83;;;2.40;;
64619;SDS011;51029;51.058;13.826;2022-09-27T01:23:02;3.53;;;2.20;;
64619;SDS011;51029;51.058;13.826;2022-09-27T01:25:48;2.43;;;2.23;;
64619;SDS011;51029;51.058;13.826;2022-09-27T01:28:37;3.50;;;2.10;;
64619;SDS011;51029;51.058;13.826;2022-09-27T01:36:10;2.77;;;2.07;;
64619;SDS011;51029;51.058;13.826;2022-09-27T01:38:46;4.00;;;2.83;;
64619;SDS011;51029;51.058;13.826;2022-09-27T01:43:49;2.57;;;2.13;;
64619;SDS011;51029;51.058;13.826;2022-09-27T01:46:28;2.70;;;1.87;;
64619;SDS011;51029;51.058;13.826;2022-09-27T01:48:58;2.90;;;2.00;;
64619;SDS011;51029;51.058;13.826;2022-09-27T01:51:27;2.63;;;2.07;;
64619;SDS011;51029;51.058;13.826;2022-09-27T01:54:01;2.17;;;1.97;;
64619;SDS011;51029;51.058;13.826;2022-09-27T01:56:30;4.47;;;2.13;;
64619;SDS011;51029;51.058;13.826;2022-09-27T01:59:02;3.10;;;1.93;;
64619;SDS011;51029;51.058;13.826;2022-09-27T02:01:29;3.60;;;2.13;;
64619;SDS011;51029;51.058;13.826;2022-09-27T02:03:57;3.23;;;2.20;;
64619;SDS011;51029;51.058;13.826;2022-09-27T02:06:27;2.47;;;1.80;;
64619;SDS011;51029;51.058;13.826;2022-09-27T02:08:59;2.33;;;1.77;;
64619;SDS011;51029;51.058;13.826;2022-09-27T02:11:26;2.40;;;1.97;;
64619;SDS011;51029;51.058;13.826;2022-09-27T02:13:53;2.80;;;1.90;;
64619;SDS011;51029;51.058;13.826;2022-09-27T02:16:32;2.40;;;2.20;;
64619;SDS011;51029;51.058;13.826;2022-09-27T02:19:09;3.43;;;2.30;;
64619;SDS011;51029;51.058;13.826;2022-09-27T02:21:39;2.77;;;2.33;;
64619;SDS011;51029;51.058;13.826;2022-09-27T02:24:06;3.77;;;2.30;;
64619;SDS011;51029;51.058;13.826;2022-09-27T02:26:39;4.87;;;2.50;;
64619;SDS011;51029;51.058;13.826;2022-09-27T02:29:07;3.53;;;2.63;;
64619;SDS011;51029;51.058;13.826;2022-09-27T02:31:35;3.97;;;2.50;;
64619;SDS011;51029;51.058;13.826;2022-09-27T02:34:09;3.23;;;2.60;;
64619;SDS011;51029;51.058;13.826;2022-09-27T02:36:36;3.50;;;2.50;;
64619;SDS011;51029;51.058;13.826;2022-09-27T02:39:02;4.07;;;2.77;;
64619;SDS011;51029;51.058;13.826;2022-09-27T02:41:28;5.93;;;2.67;;
64619;SDS011;51029;51.058;13.826;2022-09-27T02:43:55;3.43;;;2.80;;
64619;SDS011;51029;51.058;13.826;2022-09-27T02:46:38;3.93;;;2.50;;
64619;SDS011;51029;51.058;13.826;2022-09-27T02:54:30;3.67;;;2.80;;
64619;SDS011;51029;51.058;13.826;2022-09-27T02:57:12;4.93;;;3.07;;
64619;SDS011;51029;51.058;13.826;2022-09-27T02:59:51;4.00;;;2.97;;
64619;SDS011;51029;51.058;13.826;2022-09-27T03:05:10;5.17;;;3.40;;
64619;SDS011;51029;51.058;13.826;2022-09-27T03:07:37;4.83;;;3.33;;
64619;SDS011;51029;51.058;13.826;2022-09-27T03:10:04;3.37;;;3.03;;
64619;SDS011;51029;51.058;13.826;2022-09-27T03:12:30;6.27;;;3.70;;
64619;SDS011;51029;51.058;13.826;2022-09-27T03:14:57;9.83;;;3.40;;
64619;SDS011;51029;51.058;13.826;2022-09-27T03:17:24;5.40;;;3.80;;
64619;SDS011;51029;51.058;13.826;2022-09-27T03:19:50;4.67;;;3.40;;
64619;SDS011;51029;51.058;13.826;2022-09-27T03:22:16;3.63;;;3.33;;
64619;SDS011;51029;51.058;13.826;2022-09-27T03:24:42;5.57;;;3.40;;
64619;SDS011;51029;51.058;13.826;2022-09-27T03:27:08;4.53;;;3.40;;
64619;SDS011;51029;51.058;13.826;2022-09-27T03:29:34;5.90;;;3.30;;
64619;SDS011;51029;51.058;13.826;2022-09-27T03:32:01;4.30;;;3.83;;
64619;SDS011;51029;51.058;13.826;2022-09-27T03:34:27;5.33;;;3.60;;
64619;SDS011;51029;51.058;13.826;2022-09-27T03:36:53;6.37;;;3.73;;
64619;SDS011;51029;51.058;13.826;2022-09-27T03:39:19;4.57;;;3.97;;
64619;SDS011;51029;51.058;13.826;2022-09-27T03:41:45;10.30;;;5.67;;
64619;SDS011;51029;51.058;13.826;2022-09-27T03:44:11;5.20;;;4.53;;
64619;SDS011;51029;51.058;13.826;2022-09-27T03:46:37;6.40;;;4.37;;
64619;SDS011;51029;51.058;13.826;2022-09-27T03:49:03;5.13;;;4.53;;
64619;SDS011;51029;51.058;13.826;2022-09-27T03:51:29;6.03;;;4.33;;
64619;SDS011;51029;51.058;13.826;2022-09-27T03:53:55;8.20;;;4.90;;
64619;SDS011;51029;51.058;13.826;2022-09-27T03:56:21;6.87;;;4.50;;
64619;SDS011;51029;51.058;13.826;2022-09-27T03:58:47;5.43;;;4.67;;
64619;SDS011;51029;51.058;13.826;2022-09-27T04:01:12;6.23;;;5.00;;
64619;SDS011;51029;51.058;13.826;2022-09-27T04:03:38;6.67;;;5.43;;
64619;SDS011;51029;51.058;13.826;2022-09-27T04:06:04;6.60;;;5.00;;
64619;SDS011;51029;51.058;13.826;2022-09-27T04:08:30;5.90;;;5.20;;
64619;SDS011;51029;51.058;13.826;2022-09-27T04:10:56;6.33;;;5.73;;
64619;SDS011;51029;51.058;13.826;2022-09-27T04:13:22;6.23;;;5.33;;
64619;SDS011;51029;51.058;13.826;2022-09-27T04:15:48;9.03;;;5.67;;
64619;SDS011;51029;51.058;13.826;2022-09-27T04:18:14;7.43;;;5.80;;
64619;SDS011;51029;51.058;13.826;2022-09-27T04:20:40;10.43;;;5.70;;
64619;SDS011;51029;51.058;13.826;2022-09-27T04:23:06;6.97;;;5.67;;
64619;SDS011;51029;51.058;13.826;2022-09-27T04:25:32;8.13;;;5.67;;
64619;SDS011;51029;51.058;13.826;2022-09-27T04:27:58;6.97;;;6.20;;
64619;SDS011;51029;51.058;13.826;2022-09-27T04:30:26;7.60;;;5.80;;
64619;SDS011;51029;51.058;13.826;2022-09-27T04:32:53;6.63;;;5.80;;
64619;SDS011;51029;51.058;13.826;2022-09-27T04:35:18;6.30;;;5.53;;
64619;SDS011;51029;51.058;13.826;2022-09-27T04:38:03;7.27;;;6.30;;
64619;SDS011;51029;51.058;13.826;2022-09-27T04:40:32;7.93;;;6.53;;
64619;SDS011;51029;51.058;13.826;2022-09-27T04:42:58;8.07;;;6.73;;
64619;SDS011;51029;51.058;13.826;2022-09-27T04:45:24;7.20;;;6.13;;
64619;SDS011;51029;51.058;13.826;2022-09-27T04:47:50;9.07;;;6.23;;
64619;SDS011;51029;51.058;13.826;2022-09-27T04:50:16;11.37;;;7.30;;
64619;SDS011;51029;51.058;13.826;2022-09-27T04:52:42;41.97;;;30.87;;
64619;SDS011;51029;51.058;13.826;2022-09-27T04:55:09;35.77;;;27.03;;
64619;SDS011;51029;51.058;13.826;2022-09-27T04:57:35;15.57;;;11.80;;
64619;SDS011;51029;51.058;13.826;2022-09-27T05:00:01;10.00;;;7.20;;
64619;SDS011;51029;51.058;13.826;2022-09-27T05:02:27;8.37;;;7.30;;
64619;SDS011;51029;51.058;13.826;2022-09-27T05:04:53;8.00;;;6.50;;
64619;SDS011;51029;51.058;13.826;2022-09-27T05:07:26;7.77;;;7.00;;
64619;SDS011;51029;51.058;13.826;2022-09-27T05:09:53;7.20;;;6.50;;
64619;SDS011;51029;51.058;13.826;2022-09-27T05:12:19;7.53;;;6.73;;
64619;SDS011;51029;51.058;13.826;2022-09-27T05:14:45;7.67;;;6.83;;
64619;SDS011;51029;51.058;13.826;2022-09-27T05:17:11;10.07;;;7.57;;
64619;SDS011;51029;51.058;13.826;2022-09-27T05:19:38;7.37;;;6.67;;
64619;SDS011;51029;51.058;13.826;2022-09-27T05:22:07;7.20;;;6.50;;
64619;SDS011;51029;51.058;13.826;2022-09-27T05:24:33;8.30;;;7.40;;
64619;SDS011;51029;51.058;13.826;2022-09-27T05:27:01;10.00;;;7.37;;
64619;SDS011;51029;51.058;13.826;2022-09-27T05:29:27;8.03;;;6.77;;
64619;SDS011;51029;51.058;13.826;2022-09-27T05:31:53;8.87;;;6.50;;
64619;SDS011;51029;51.058;13.826;2022-09-27T05:34:19;7.50;;;6.80;;
64619;SDS011;51029;51.058;13.826;2022-09-27T05:36:48;8.33;;;7.53;;
64619;SDS011;51029;51.058;13.826;2022-09-27T05:39:14;10.13;;;8.57;;
64619;SDS011;51029;51.058;13.826;2022-09-27T05:41:41;9.73;;;7.40;;
64619;SDS011;51029;51.058;13.826;2022-09-27T05:44:07;7.97;;;7.20;;
64619;SDS011;51029;51.058;13.826;2022-09-27T05:46:33;8.00;;;7.20;;
64619;SDS011;51029;51.058;13.826;2022-09-27T05:48:59;8.40;;;7.60;;
64619;SDS011;51029;51.058;13.826;2022-09-27T05:51:25;8.63;;;7.07;;
64619;SDS011;51029;51.058;13.826;2022-09-27T05:53:52;6.83;;;6.23;;
64619;SDS011;51029;51.058;13.826;2022-09-27T05:56:18;7.70;;;7.00;;
64619;SDS011;51029;51.058;13.826;2022-09-27T05:58:44;8.37;;;7.67;;
64619;SDS011;51029;51.058;13.826;2022-09-27T06:01:10;7.90;;;6.93;;
64619;SDS011;51029;51.058;13.826;2022-09-27T06:03:35;8.00;;;7.23;;
64619;SDS011;51029;51.058;13.826;2022-09-27T06:06:02;11.80;;;8.30;;
64619;SDS011;51029;51.058;13.826;2022-09-27T06:08:31;8.77;;;7.93;;
64619;SDS011;51029;51.058;13.826;2022-09-27T06:10:59;7.63;;;6.70;;
64619;SDS011;51029;51.058;13.826;2022-09-27T06:13:28;7.80;;;7.07;;
64619;SDS011;51029;51.058;13.826;2022-09-27T06:15:54;8.07;;;7.30;;
64619;SDS011;51029;51.058;13.826;2022-09-27T06:18:20;8.50;;;7.67;;
64619;SDS011;51029;51.058;13.826;2022-09-27T06:20:46;8.47;;;7.67;;
64619;SDS011;51029;51.058;13.826;2022-09-27T06:23:13;8.33;;;7.53;;
64619;SDS011;51029;51.058;13.826;2022-09-27T06:25:40;8.33;;;7.63;;
64619;SDS011;51029;51.058;13.826;2022-09-27T06:28:06;9.27;;;8.37;;
64619;SDS011;51029;51.058;13.826;2022-09-27T06:30:36;9.73;;;8.60;;
64619;SDS011;51029;51.058;13.826;2022-09-27T06:33:02;8.80;;;8.00;;
64619;SDS011;51029;51.058;13.826;2022-09-27T06:35:28;8.97;;;8.17;;
64619;SDS011;51029;51.058;13.826;2022-09-27T06:37:55;9.53;;;8.57;;
64619;SDS011;51029;51.058;13.826;2022-09-27T06:40:21;8.60;;;7.77;;
64619;SDS011;51029;51.058;13.826;2022-09-27T06:42:51;9.60;;;8.70;;
64619;SDS011;51029;51.058;13.826;2022-09-27T06:45:16;9.60;;;8.70;;
64619;SDS011;51029;51.058;13.826;2022-09-27T06:47:42;10.20;;;9.20;;
64619;SDS011;51029;51.058;13.826;2022-09-27T06:50:09;8.63;;;7.87;;
64619;SDS011;51029;51.058;13.826;2022-09-27T06:52:35;10.50;;;9.47;;
64619;SDS011;51029;51.058;13.826;2022-09-27T06:55:02;10.43;;;9.50;;
64619;SDS011;51029;51.058;13.826;2022-09-27T06:57:28;8.53;;;7.73;;
64619;SDS011;51029;51.058;13.826;2022-09-27T07:00:12;11.33;;;9.10;;
64619;SDS011;51029;51.058;13.826;2022-09-27T07:02:47;9.40;;;8.50;;
64619;SDS011;51029;51.058;13.826;2022-09-27T07:05:14;9.53;;;8.53;;
64619;SDS011;51029;51.058;13.826;2022-09-27T07:07:40;8.47;;;7.50;;
64619;SDS011;51029;51.058;13.826;2022-09-27T07:10:08;8.37;;;7.63;;
64619;SDS011;51029;51.058;13.826;2022-09-27T07:12:34;8.37;;;7.67;;
64619;SDS011;51029;51.058;13.826;2022-09-27T07:15:00;7.90;;;7.30;;
64619;SDS011;51029;51.058;13.826;2022-09-27T07:17:26;8.83;;;7.97;;
64619;SDS011;51029;51.058;13.826;2022-09-27T07:19:52;9.53;;;8.70;;
64619;SDS011;51029;51.058;13.826;2022-09-27T07:22:18;8.40;;;7.67;;
64619;SDS011;51029;51.058;13.826;2022-09-27T07:24:44;7.80;;;7.10;;
64619;SDS011;51029;51.058;13.826;2022-09-27T07:27:10;7.80;;;7.10;;
64619;SDS011;51029;51.058;13.826;2022-09-27T07:29:36;8.90;;;8.10;;
64619;SDS011;51029;51.058;13.826;2022-09-27T07:32:03;9.27;;;8.47;;
64619;SDS011;51029;51.058;13.826;2022-09-27T07:34:29;9.83;;;8.93;;
64619;SDS011;51029;51.058;13.826;2022-09-27T07:36:58;10.40;;;9.50;;
64619;SDS011;51029;51.058;13.826;2022-09-27T07:39:24;7.80;;;7.20;;
64619;SDS011;51029;51.058;13.826;2022-09-27T07:41:50;9.60;;;8.33;;
64619;SDS011;51029;51.058;13.826;2022-09-27T07:44:16;7.80;;;7.10;;
64619;SDS011;51029;51.058;13.826;2022-09-27T07:46:42;7.00;;;6.40;;
64619;SDS011;51029;51.058;13.826;2022-09-27T07:49:08;7.53;;;6.90;;
64619;SDS011;51029;51.058;13.826;2022-09-27T07:51:34;6.70;;;6.03;;
64619;SDS011;51029;51.058;13.826;2022-09-27T07:54:00;6.93;;;6.43;;
64619;SDS011;51029;51.058;13.826;2022-09-27T07:56:26;8.30;;;7.20;;
64619;SDS011;51029;51.058;13.826;2022-09-27T07:58:52;7.10;;;6.57;;
64619;SDS011;51029;51.058;13.826;2022-09-27T08:01:18;8.47;;;7.47;;
64619;SDS011;51029;51.058;13.826;2022-09-27T08:03:44;8.53;;;7.67;;
64619;SDS011;51029;51.058;13.826;2022-09-27T08:06:10;8.43;;;7.37;;
64619;SDS011;51029;51.058;13.826;2022-09-27T08:08:37;5.83;;;5.23;;
64619;SDS011;51029;51.058;13.826;2022-09-27T08:11:12;5.87;;;5.37;;
64619;SDS011;51029;51.058;13.826;2022-09-27T08:13:40;5.30;;;4.60;;
64619;SDS011;51029;51.058;13.826;2022-09-27T08:16:05;4.37;;;3.77;;
64619;SDS011;51029;51.058;13.826;2022-09-27T08:18:31;4.00;;;3.70;;
64619;SDS011;51029;51.058;13.826;2022-09-27T08:20:58;4.43;;;4.03;;
64619;SDS011;51029;51.058;13.826;2022-09-27T08:23:24;4.30;;;3.90;;
64619;SDS011;51029;51.058;13.826;2022-09-27T08:25:51;4.07;;;3.77;;
64619;SDS011;51029;51.058;13.826;2022-09-27T08:28:17;4.67;;;4.17;;
64619;SDS011;51029;51.058;13.826;2022-09-27T08:30:43;4.40;;;4.10;;
64619;SDS011;51029;51.058;13.826;2022-09-27T08:33:09;4.13;;;3.50;;
64619;SDS011;51029;51.058;13.826;2022-09-27T08:35:35;2.77;;;2.57;;
64619;SDS011;51029;51.058;13.826;2022-09-27T08:38:01;3.07;;;2.67;;
64619;SDS011;51029;51.058;13.826;2022-09-27T08:43:11;3.17;;;2.97;;
64619;SDS011;51029;51.058;13.826;2022-09-27T08:45:41;3.10;;;2.80;;
64619;SDS011;51029;51.058;13.826;2022-09-27T08:48:11;3.17;;;2.87;;
64619;SDS011;51029;51.058;13.826;2022-09-27T08:50:41;2.60;;;2.40;;
64619;SDS011;51029;51.058;13.826;2022-09-27T08:55:48;2.60;;;2.40;;
64619;SDS011;51029;51.058;13.826;2022-09-27T08:58:18;2.80;;;2.50;;
64619;SDS011;51029;51.058;13.826;2022-09-27T09:00:48;2.50;;;2.30;;
64619;SDS011;51029;51.058;13.826;2022-09-27T09:03:16;2.00;;;1.90;;
64619;SDS011;51029;51.058;13.826;2022-09-27T09:05:43;2.07;;;1.60;;
64619;SDS011;51029;51.058;13.826;2022-09-27T09:13:25;2.80;;;1.20;;
64619;SDS011;51029;51.058;13.826;2022-09-27T09:15:54;1.80;;;1.50;;
64619;SDS011;51029;51.058;13.826;2022-09-27T09:18:33;1.00;;;0.90;;
64619;SDS011;51029;51.058;13.826;2022-09-27T09:26:23;1.73;;;0.93;;
64619;SDS011;51029;51.058;13.826;2022-09-27T09:28:56;0.70;;;0.70;;
64619;SDS011;51029;51.058;13.826;2022-09-27T09:33:52;0.73;;;0.73;;
64619;SDS011;51029;51.058;13.826;2022-09-27T09:36:23;0.73;;;0.70;;
64619;SDS011;51029;51.058;13.826;2022-09-27T09:38:51;1.50;;;0.80;;
64619;SDS011;51029;51.058;13.826;2022-09-27T09:41:27;0.73;;;0.70;;
64619;SDS011;51029;51.058;13.826;2022-09-27T09:44:01;1.80;;;0.80;;
64619;SDS011;51029;51.058;13.826;2022-09-27T09:46:34;1.03;;;0.70;;
64619;SDS011;51029;51.058;13.826;2022-09-27T09:49:03;2.57;;;0.90;;
64619;SDS011;51029;51.058;13.826;2022-09-27T09:51:33;1.90;;;0.50;;
64619;SDS011;51029;51.058;13.826;2022-09-27T09:54:02;0.73;;;0.60;;
64619;SDS011;51029;51.058;13.826;2022-09-27T09:56:54;1.00;;;0.70;;
64619;SDS011;51029;51.058;13.826;2022-09-27T09:59:18;2.17;;;0.90;;
64619;SDS011;51029;51.058;13.826;2022-09-27T10:01:46;0.83;;;0.60;;
64619;SDS011;51029;51.058;13.826;2022-09-27T10:04:20;1.57;;;0.60;;
64619;SDS011;51029;51.058;13.826;2022-09-27T10:06:46;0.67;;;0.63;;
64619;SDS011;51029;51.058;13.826;2022-09-27T10:09:14;0.93;;;0.60;;
64619;SDS011;51029;51.058;13.826;2022-09-27T10:11:41;0.70;;;0.70;;
64619;SDS011;51029;51.058;13.826;2022-09-27T10:14:11;1.33;;;0.83;;
64619;SDS011;51029;51.058;13.826;2022-09-27T10:16:38;2.27;;;0.70;;
64619;SDS011;51029;51.058;13.826;2022-09-27T10:19:06;1.30;;;0.60;;
64619;SDS011;51029;51.058;13.826;2022-09-27T10:21:32;0.73;;;0.60;;
64619;SDS011;51029;51.058;13.826;2022-09-27T10:24:03;0.70;;;0.60;;
64619;SDS011;51029;51.058;13.826;2022-09-27T10:26:30;0.87;;;0.80;;
64619;SDS011;51029;51.058;13.826;2022-09-27T10:28:56;0.67;;;0.67;;
64619;SDS011;51029;51.058;13.826;2022-09-27T10:31:23;0.67;;;0.60;;
64619;SDS011;51029;51.058;13.826;2022-09-27T10:34:02;1.53;;;0.60;;
64619;SDS011;51029;51.058;13.826;2022-09-27T10:36:32;1.60;;;0.60;;
64619;SDS011;51029;51.058;13.826;2022-09-27T10:38:59;0.80;;;0.70;;
64619;SDS011;51029;51.058;13.826;2022-09-27T10:41:59;0.80;;;0.67;;
64619;SDS011;51029;51.058;13.826;2022-09-27T10:44:19;0.93;;;0.60;;
64619;SDS011;51029;51.058;13.826;2022-09-27T10:46:49;1.53;;;0.70;;
64619;SDS011;51029;51.058;13.826;2022-09-27T10:52:02;0.80;;;0.77;;
64619;SDS011;51029;51.058;13.826;2022-09-27T10:54:34;1.27;;;0.77;;
64619;SDS011;51029;51.058;13.826;2022-09-27T10:57:04;1.50;;;0.80;;
64619;SDS011;51029;51.058;13.826;2022-09-27T10:59:34;0.70;;;0.70;;
64619;SDS011;51029;51.058;13.826;2022-09-27T11:02:01;0.60;;;0.60;;
64619;SDS011;51029;51.058;13.826;2022-09-27T11:04:29;0.90;;;0.60;;
64619;SDS011;51029;51.058;13.826;2022-09-27T11:09:43;0.60;;;0.60;;
64619;SDS011;51029;51.058;13.826;2022-09-27T11:12:10;0.53;;;0.53;;
64619;SDS011;51029;51.058;13.826;2022-09-27T11:14:37;1.80;;;1.07;;
64619;SDS011;51029;51.058;13.826;2022-09-27T11:17:21;1.73;;;0.87;;
64619;SDS011;51029;51.058;13.826;2022-09-27T11:30:26;0.70;;;0.70;;
64619;SDS011;51029;51.058;13.826;2022-09-27T11:35:51;1.30;;;0.70;;
64619;SDS011;51029;51.058;13.826;2022-09-27T11:43:43;3.27;;;1.10;;
64619;SDS011;51029;51.058;13.826;2022-09-27T11:46:29;0.73;;;0.70;;
64619;SDS011;51029;51.058;13.826;2022-09-27T11:54:04;0.60;;;0.60;;
64619;SDS011;51029;51.058;13.826;2022-09-27T12:01:41;0.97;;;0.70;;
64619;SDS011;51029;51.058;13.826;2022-09-27T12:04:21;0.90;;;0.70;;
64619;SDS011;51029;51.058;13.826;2022-09-27T12:09:22;0.80;;;0.60;;
64619;SDS011;51029;51.058;13.826;2022-09-27T12:11:49;0.77;;;0.60;;
64619;SDS011;51029;51.058;13.826;2022-09-27T12:14:18;0.53;;;0.53;;
64619;SDS011;51029;51.058;13.826;2022-09-27T12:16:45;0.67;;;0.67;;
64619;SDS011;51029;51.058;13.826;2022-09-27T12:19:14;0.60;;;0.60;;
64619;SDS011;51029;51.058;13.826;2022-09-27T12:21:42;0.63;;;0.60;;
64619;SDS011;51029;51.058;13.826;2022-09-27T12:24:09;1.63;;;1.10;;
64619;SDS011;51029;51.058;13.826;2022-09-27T12:26:40;1.03;;;0.93;;
64619;SDS011;51029;51.058;13.826;2022-09-27T12:29:11;1.73;;;0.70;;
64619;SDS011;51029;51.058;13.826;2022-09-27T12:31:43;0.63;;;0.63;;
64619;SDS011;51029;51.058;13.826;2022-09-27T12:34:31;0.50;;;0.50;;
64619;SDS011;51029;51.058;13.826;2022-09-27T12:37:43;0.50;;;0.50;;
64619;SDS011;51029;51.058;13.826;2022-09-27T12:42:35;1.03;;;0.60;;
64619;SDS011;51029;51.058;13.826;2022-09-27T12:45:03;1.33;;;0.70;;
64619;SDS011;51029;51.058;13.826;2022-09-27T12:50:08;0.80;;;0.50;;
64619;SDS011;51029;51.058;13.826;2022-09-27T12:52:37;0.50;;;0.50;;
64619;SDS011;51029;51.058;13.826;2022-09-27T12:55:16;0.60;;;0.50;;
64619;SDS011;51029;51.058;13.826;2022-09-27T12:57:53;1.17;;;0.70;;
64619;SDS011;51029;51.058;13.826;2022-09-27T13:00:25;0.83;;;0.50;;
64619;SDS011;51029;51.058;13.826;2022-09-27T13:02:56;0.60;;;0.60;;
64619;SDS011;51029;51.058;13.826;2022-09-27T13:10:49;0.60;;;0.60;;
64619;SDS011;51029;51.058;13.826;2022-09-27T13:13:17;1.67;;;0.70;;
64619;SDS011;51029;51.058;13.826;2022-09-27T13:15:45;0.50;;;0.50;;
64619;SDS011;51029;51.058;13.826;2022-09-27T13:20:56;1.27;;;0.67;;
64619;SDS011;51029;51.058;13.826;2022-09-27T13:25:49;0.67;;;0.67;;
64619;SDS011;51029;51.058;13.826;2022-09-27T13:30:59;1.07;;;0.50;;
64619;SDS011;51029;51.058;13.826;2022-09-27T13:33:33;2.33;;;0.40;;
64619;SDS011;51029;51.058;13.826;2022-09-27T13:36:19;0.63;;;0.50;;
64619;SDS011;51029;51.058;13.826;2022-09-27T13:38:54;1.07;;;0.60;;
64619;SDS011;51029;51.058;13.826;2022-09-27T13:44:05;1.63;;;0.50;;
64619;SDS011;51029;51.058;13.826;2022-09-27T13:46:33;0.50;;;0.50;;
64619;SDS011;51029;51.058;13.826;2022-09-27T13:49:02;0.50;;;0.50;;
64619;SDS011;51029;51.058;13.826;2022-09-27T13:53:57;0.80;;;0.70;;
64619;SDS011;51029;51.058;13.826;2022-09-27T13:59:03;1.23;;;0.60;;
64619;SDS011;51029;51.058;13.826;2022-09-27T14:01:32;0.63;;;0.60;;
64619;SDS011;51029;51.058;13.826;2022-09-27T14:04:00;1.67;;;0.60;;
64619;SDS011;51029;51.058;13.826;2022-09-27T14:06:29;2.07;;;1.10;;
64619;SDS011;51029;51.058;13.826;2022-09-27T14:08:57;2.10;;;1.10;;
64619;SDS011;51029;51.058;13.826;2022-09-27T14:11:25;1.80;;;1.10;;
64619;SDS011;51029;51.058;13.826;2022-09-27T14:13:52;1.97;;;1.47;;
64619;SDS011;51029;51.058;13.826;2022-09-27T14:16:19;3.17;;;2.10;;
64619;SDS011;51029;51.058;13.826;2022-09-27T14:18:50;3.33;;;2.23;;
64619;SDS011;51029;51.058;13.826;2022-09-27T14:21:26;2.83;;;1.97;;
64619;SDS011;51029;51.058;13.826;2022-09-27T14:23:53;1.17;;;0.90;;
64619;SDS011;51029;51.058;13.826;2022-09-27T14:26:26;1.00;;;0.70;;
64619;SDS011;51029;51.058;13.826;2022-09-27T14:28:52;1.50;;;0.80;;
64619;SDS011;51029;51.058;13.826;2022-09-27T14:31:20;0.70;;;0.70;;
64619;SDS011;51029;51.058;13.826;2022-09-27T14:33:47;2.03;;;0.80;;
64619;SDS011;51029;51.058;13.826;2022-09-27T14:36:22;1.77;;;0.80;;
64619;SDS011;51029;51.058;13.826;2022-09-27T14:41:55;1.07;;;0.63;;
64619;SDS011;51029;51.058;13.826;2022-09-27T14:44:21;0.87;;;0.83;;
64619;SDS011;51029;51.058;13.826;2022-09-27T14:46:47;0.93;;;0.80;;
64619;SDS011;51029;51.058;13.826;2022-09-27T14:49:31;0.70;;;0.70;;
64619;SDS011;51029;51.058;13.826;2022-09-27T14:51:58;0.97;;;0.73;;
64619;SDS011;51029;51.058;13.826;2022-09-27T14:54:27;1.00;;;0.70;;
64619;SDS011;51029;51.058;13.826;2022-09-27T14:56:55;0.90;;;0.70;;
64619;SDS011;51029;51.058;13.826;2022-09-27T14:59:23;0.80;;;0.80;;
64619;SDS011;51029;51.058;13.826;2022-09-27T15:01:54;1.70;;;0.83;;
64619;SDS011;51029;51.058;13.826;2022-09-27T15:04:21;1.27;;;0.90;;
64619;SDS011;51029;51.058;13.826;2022-09-27T15:06:48;1.20;;;0.80;;
64619;SDS011;51029;51.058;13.826;2022-09-27T15:09:14;1.27;;;0.80;;
64619;SDS011;51029;51.058;13.826;2022-09-27T15:11:41;9.47;;;5.60;;
64619;SDS011;51029;51.058;13.826;2022-09-27T15:14:12;26.77;;;18.30;;
64619;SDS011;51029;51.058;13.826;2022-09-27T15:16:39;1.90;;;1.53;;
64619;SDS011;51029;51.058;13.826;2022-09-27T15:21:42;1.93;;;1.30;;
64619;SDS011;51029;51.058;13.826;2022-09-27T15:26:53;1.57;;;1.10;;
64619;SDS011;51029;51.058;13.826;2022-09-27T15:29:21;1.00;;;0.90;;
64619;SDS011;51029;51.058;13.826;2022-09-27T15:32:06;1.20;;;1.10;;
64619;SDS011;51029;51.058;13.826;2022-09-27T15:34:33;1.37;;;1.00;;
64619;SDS011;51029;51.058;13.826;2022-09-27T15:37:01;1.80;;;1.30;;
64619;SDS011;51029;51.058;13.826;2022-09-27T15:39:37;1.30;;;1.07;;
64619;SDS011;51029;51.058;13.826;2022-09-27T15:42:13;1.10;;;1.00;;
64619;SDS011;51029;51.058;13.826;2022-09-27T15:47:53;1.60;;;1.10;;
64619;SDS011;51029;51.058;13.826;2022-09-27T15:49:55;1.37;;;1.10;;
64619;SDS011;51029;51.058;13.826;2022-09-27T15:52:43;1.83;;;1.37;;
64619;SDS011;51029;51.058;13.826;2022-09-27T15:55:11;2.73;;;1.50;;
64619;SDS011;51029;51.058;13.826;2022-09-27T15:57:40;3.30;;;1.50;;
64619;SDS011;51029;51.058;13.826;2022-09-27T16:00:09;2.40;;;1.30;;
64619;SDS011;51029;51.058;13.826;2022-09-27T16:02:37;2.33;;;1.30;;
64619;SDS011;51029;51.058;13.826;2022-09-27T16:05:03;1.60;;;1.40;;
64619;SDS011;51029;51.058;13.826;2022-09-27T16:07:28;2.03;;;1.40;;
64619;SDS011;51029;51.058;13.826;2022-09-27T16:09:54;1.70;;;1.60;;
64619;SDS011;51029;51.058;13.826;2022-09-27T16:12:21;3.40;;;1.77;;
64619;SDS011;51029;51.058;13.826;2022-09-27T16:14:47;2.10;;;1.40;;
64619;SDS011;51029;51.058;13.826;2022-09-27T16:17:12;1.70;;;1.10;;
64619;SDS011;51029;51.058;13.826;2022-09-27T16:19:39;1.43;;;1.23;;
64619;SDS011;51029;51.058;13.826;2022-09-27T16:22:05;1.50;;;1.40;;
64619;SDS011;51029;51.058;13.826;2022-09-27T16:24:31;1.60;;;1.20;;
64619;SDS011;51029;51.058;13.826;2022-09-27T16:26:57;1.53;;;1.10;;
64619;SDS011;51029;51.058;13.826;2022-09-27T16:29:23;2.20;;;1.20;;
64619;SDS011;51029;51.058;13.826;2022-09-27T16:31:49;1.43;;;1.30;;
64619;SDS011;51029;51.058;13.826;2022-09-27T16:34:17;2.00;;;1.37;;
64619;SDS011;51029;51.058;13.826;2022-09-27T16:36:43;1.77;;;1.60;;
64619;SDS011;51029;51.058;13.826;2022-09-27T16:39:10;2.23;;;1.30;;